createdAt,value
2023-08-13T04:15:26.293Z,66.88
2023-08-13T04:16:26.263Z,66.78
2023-08-13T04:17:26.277Z,66.68
2023-08-13T04:18:26.223Z,66.97
2023-08-13T04:19:26.194Z,66.88
2023-08-13T04:20:26.176Z,67.16
2023-08-13T04:21:26.165Z,67.26
2023-08-13T04:22:26.164Z,67.65
2023-08-13T04:23:26.170Z,67.07
2023-08-13T04:24:26.150Z,67.26
2023-08-13T04:25:26.142Z,67.35
2023-08-13T04:26:26.164Z,67.45
2023-08-13T04:27:26.146Z,67.74
2023-08-13T04:28:26.133Z,67.45
2023-08-13T04:29:26.127Z,67.68
2023-08-13T04:30:26.156Z,67.68
2023-08-13T04:31:26.180Z,67.19
2023-08-13T04:32:26.241Z,67.39
2023-08-13T04:33:26.118Z,67.19
2023-08-13T04:34:26.103Z,67.58
2023-08-13T04:35:26.139Z,67.39
2023-08-13T04:36:26.113Z,67.58
2023-08-13T04:37:26.085Z,67.49
2023-08-13T04:38:26.083Z,67.39
2023-08-13T04:39:26.099Z,67.49
2023-08-13T04:40:26.078Z,67.49
2023-08-13T04:41:26.131Z,67.39
2023-08-13T04:42:26.078Z,67.68
2023-08-13T04:43:26.068Z,67.77
2023-08-13T04:44:26.072Z,67.39
2023-08-13T04:45:26.095Z,67.49
2023-08-13T04:46:26.074Z,67.58
2023-08-13T04:47:26.104Z,67.29
2023-08-13T04:48:26.045Z,67.39
2023-08-13T04:49:26.059Z,67.39
2023-08-13T04:50:26.062Z,67.39
2023-08-13T04:51:26.035Z,67.10
2023-08-13T04:52:26.080Z,67.39
2023-08-13T04:53:26.084Z,67.58
2023-08-13T04:54:26.023Z,67.61
2023-08-13T04:55:26.017Z,67.49
2023-08-13T04:56:26.045Z,67.81
2023-08-13T04:57:26.054Z,67.23
2023-08-13T04:58:26.013Z,67.61
2023-08-13T04:59:26.013Z,67.71
2023-08-13T05:00:26.004Z,67.52
2023-08-13T05:01:26.132Z,67.42
2023-08-13T05:02:26.071Z,67.13
2023-08-13T05:03:26.040Z,67.13
2023-08-13T05:04:26.105Z,67.52
2023-08-13T05:05:26.093Z,67.33
2023-08-13T05:06:25.991Z,67.33
2023-08-13T05:07:25.976Z,67.42
2023-08-13T05:08:26.005Z,67.23
2023-08-13T05:09:25.970Z,67.23
2023-08-13T05:10:25.982Z,67.03
2023-08-13T05:11:25.961Z,67.71
2023-08-13T05:12:25.986Z,66.94
2023-08-13T05:13:25.978Z,66.94
2023-08-13T05:14:25.958Z,67.13
2023-08-13T05:15:25.966Z,66.85
2023-08-13T05:16:25.967Z,67.13
2023-08-13T05:17:25.953Z,66.75
2023-08-13T05:18:25.967Z,67.23
2023-08-13T05:19:28.345Z,67.23
2023-08-13T05:20:25.933Z,66.78
2023-08-13T05:21:25.943Z,67.07
2023-08-13T05:22:25.954Z,67.16
2023-08-13T05:23:25.949Z,66.97
2023-08-13T05:24:25.968Z,67.07
2023-08-13T05:25:25.931Z,67.46
2023-08-13T05:26:25.939Z,67.07
2023-08-13T05:27:25.929Z,66.78
2023-08-13T05:28:25.923Z,67.26
2023-08-13T05:29:25.908Z,66.69
2023-08-13T05:30:25.908Z,66.97
2023-08-13T05:31:25.962Z,67.36
2023-08-13T05:32:25.970Z,67.36
2023-08-13T05:33:25.918Z,66.78
2023-08-13T05:34:25.892Z,66.97
2023-08-13T05:35:25.936Z,66.97
2023-08-13T05:36:25.887Z,66.97
2023-08-13T05:37:25.909Z,66.97
2023-08-13T05:38:25.890Z,66.97
2023-08-13T05:39:25.875Z,67.26
2023-08-13T05:40:25.866Z,67.26
2023-08-13T05:41:25.886Z,66.97
2023-08-13T05:42:25.871Z,66.97
2023-08-13T05:43:25.871Z,66.88
2023-08-13T05:44:25.871Z,66.88
2023-08-13T05:45:25.864Z,66.97
2023-08-13T05:46:25.885Z,66.97
2023-08-13T05:47:25.897Z,66.78
2023-08-13T05:48:25.885Z,67.07
2023-08-13T05:49:25.865Z,67.07
2023-08-13T05:50:25.860Z,67.16
2023-08-13T05:51:25.861Z,67.07
2023-08-13T05:52:25.854Z,66.88
2023-08-13T05:53:25.875Z,66.69
2023-08-13T05:54:25.852Z,66.88
2023-08-13T05:55:25.843Z,66.91
2023-08-13T05:56:25.818Z,66.82
2023-08-13T05:57:25.818Z,66.82
2023-08-13T05:58:25.835Z,66.72
2023-08-13T05:59:25.888Z,66.52
2023-08-13T06:00:25.818Z,66.62
2023-08-13T06:01:25.850Z,66.72
2023-08-13T06:02:25.831Z,67.00
2023-08-13T06:03:27.408Z,66.82
2023-08-13T06:04:25.826Z,66.43
2023-08-13T06:05:25.818Z,66.62
2023-08-13T06:06:25.830Z,66.33
2023-08-13T06:07:25.853Z,66.52
2023-08-13T06:08:25.783Z,66.52
2023-08-13T06:09:25.827Z,66.52
2023-08-13T06:10:25.796Z,66.75
2023-08-13T06:11:25.798Z,66.66
2023-08-13T06:12:25.785Z,66.75
2023-08-13T06:13:25.814Z,66.75
2023-08-13T06:14:25.785Z,66.75
2023-08-13T06:15:25.808Z,66.75
2023-08-13T06:16:26.533Z,66.75
2023-08-13T06:17:25.865Z,66.27
2023-08-13T06:18:25.779Z,65.98
2023-08-13T06:19:25.781Z,65.98
2023-08-13T06:20:25.790Z,66.27
2023-08-13T06:21:25.782Z,66.08
2023-08-13T06:22:25.774Z,65.98
2023-08-13T06:23:25.804Z,66.36
2023-08-13T06:24:25.919Z,65.72
2023-08-13T06:25:25.756Z,65.72
2023-08-13T06:26:25.800Z,65.72
2023-08-13T06:27:25.762Z,65.63
2023-08-13T06:28:25.822Z,65.72
2023-08-13T06:29:25.810Z,65.72
2023-08-13T06:30:25.772Z,65.82
2023-08-13T06:31:41.447Z,65.82
2023-08-13T06:32:25.743Z,65.72
2023-08-13T06:33:25.759Z,65.72
2023-08-13T06:34:25.786Z,66.01
2023-08-13T06:35:25.723Z,65.53
2023-08-13T06:36:25.721Z,66.40
2023-08-13T06:37:25.720Z,66.11
2023-08-13T06:38:25.789Z,66.11
2023-08-13T06:39:25.760Z,65.82
2023-08-13T06:40:25.793Z,65.85
2023-08-13T06:41:25.708Z,66.14
2023-08-13T06:42:25.710Z,66.14
2023-08-13T06:43:25.733Z,65.95
2023-08-13T06:44:25.706Z,65.37
2023-08-13T06:45:25.720Z,65.27
2023-08-13T06:46:25.741Z,66.14
2023-08-13T06:47:25.717Z,65.66
2023-08-13T06:48:25.685Z,65.75
2023-08-13T06:49:25.702Z,66.14
2023-08-13T06:50:25.747Z,66.17
2023-08-13T06:51:25.706Z,65.78
2023-08-13T06:52:25.688Z,65.78
2023-08-13T06:53:25.691Z,65.88
2023-08-13T06:54:25.684Z,65.69
2023-08-13T06:55:25.786Z,65.50
2023-08-13T06:56:25.683Z,65.50
2023-08-13T06:57:25.680Z,65.40
2023-08-13T06:58:25.717Z,65.20
2023-08-13T06:59:25.679Z,65.50
2023-08-13T07:00:35.497Z,65.63
2023-08-13T07:01:25.704Z,65.14
2023-08-13T07:02:25.680Z,65.34
2023-08-13T07:03:25.675Z,65.53
2023-08-13T07:04:25.727Z,65.24
2023-08-13T07:05:25.673Z,65.53
2023-08-13T07:06:25.684Z,65.24
2023-08-13T07:07:25.712Z,65.14
2023-08-13T07:08:25.674Z,65.05
2023-08-13T07:09:25.684Z,65.17
2023-08-13T07:10:25.672Z,65.27
2023-08-13T07:11:25.712Z,65.27
2023-08-13T07:12:25.689Z,64.79
2023-08-13T07:13:25.708Z,65.08
2023-08-13T07:14:25.662Z,65.47
2023-08-13T07:15:25.677Z,64.98
2023-08-13T07:16:25.762Z,65.08
2023-08-13T07:17:25.682Z,64.92
2023-08-13T07:18:25.677Z,65.11
2023-08-13T07:19:25.661Z,64.72
2023-08-13T07:20:25.652Z,64.43
2023-08-13T07:21:25.664Z,64.82
2023-08-13T07:22:25.674Z,64.62
2023-08-13T07:23:25.698Z,64.62
2023-08-13T07:24:25.705Z,64.53
2023-08-13T07:25:25.656Z,64.82
2023-08-13T07:26:25.655Z,64.75
2023-08-13T07:27:25.697Z,64.75
2023-08-13T07:28:25.659Z,65.05
2023-08-13T07:29:25.654Z,64.95
2023-08-13T07:30:25.673Z,64.66
2023-08-13T07:31:25.689Z,64.56
2023-08-13T07:32:25.683Z,64.47
2023-08-13T07:33:25.649Z,65.34
2023-08-13T07:34:25.691Z,64.66
2023-08-13T07:35:25.678Z,64.66
2023-08-13T07:36:25.690Z,64.85
2023-08-13T07:37:27.773Z,64.66
2023-08-13T07:38:25.660Z,64.56
2023-08-13T07:39:25.644Z,64.56
2023-08-13T07:40:25.800Z,64.69
2023-08-13T07:42:58.276Z,64.69
2023-08-13T07:43:58.220Z,64.50
2023-08-13T07:44:58.223Z,64.30
2023-08-13T07:45:58.208Z,64.59
2023-08-13T07:46:58.181Z,64.11
2023-08-13T07:47:58.228Z,64.50
2023-08-13T07:48:58.189Z,64.11
2023-08-13T07:49:58.195Z,64.50
2023-08-13T07:50:58.223Z,64.11
2023-08-13T07:51:58.184Z,64.01
2023-08-13T07:52:58.183Z,64.11
2023-08-13T07:53:58.218Z,64.11
2023-08-13T07:54:58.189Z,64.11
2023-08-13T07:55:58.191Z,64.50
2023-08-13T07:56:58.198Z,64.62
2023-08-13T07:57:58.195Z,64.72
2023-08-13T07:58:58.227Z,63.85
2023-08-13T07:59:58.235Z,63.75
2023-08-13T08:00:58.214Z,63.65
2023-08-13T08:01:58.176Z,64.43
2023-08-13T08:02:58.282Z,63.85
2023-08-13T08:03:58.235Z,63.85
2023-08-13T08:04:58.206Z,63.95
2023-08-13T08:05:58.176Z,63.56
2023-08-13T08:06:58.183Z,63.65
2023-08-13T08:07:58.175Z,64.34
2023-08-13T08:08:58.181Z,64.43
2023-08-13T08:09:58.221Z,64.34
2023-08-13T08:10:58.223Z,63.75
2023-08-13T08:11:58.177Z,63.69
2023-08-13T08:12:58.188Z,63.88
2023-08-13T08:13:58.199Z,63.88
2023-08-13T08:14:58.220Z,63.69
2023-08-13T08:15:58.314Z,63.88
2023-08-13T08:16:58.172Z,63.59
2023-08-13T08:17:58.224Z,64.17
2023-08-13T08:18:58.217Z,63.78
2023-08-13T08:19:58.186Z,64.27
2023-08-13T08:20:58.195Z,63.30
2023-08-13T08:21:58.216Z,63.01
2023-08-13T08:22:58.211Z,63.20
2023-08-13T08:23:58.203Z,63.69
2023-08-13T08:24:58.204Z,63.20
2023-08-13T08:25:58.196Z,63.13
2023-08-13T08:26:58.179Z,63.82
2023-08-13T08:27:58.219Z,63.62
2023-08-13T08:28:58.192Z,63.72
2023-08-13T08:29:58.202Z,63.53
2023-08-13T08:30:58.238Z,63.72
2023-08-13T08:31:58.197Z,63.82
2023-08-13T08:32:58.281Z,63.72
2023-08-13T08:33:58.182Z,63.23
2023-08-13T08:34:58.270Z,63.23
2023-08-13T08:35:58.187Z,63.23
2023-08-13T08:36:58.198Z,63.26
2023-08-13T08:37:58.234Z,63.46
2023-08-13T08:38:58.217Z,63.07
2023-08-13T08:39:58.189Z,63.36
2023-08-13T08:40:58.218Z,63.36
2023-08-13T08:41:58.203Z,63.17
2023-08-13T08:42:58.208Z,62.78
2023-08-13T08:43:58.197Z,62.78
2023-08-13T08:44:58.222Z,62.78
2023-08-13T08:45:58.290Z,62.49
2023-08-13T08:46:58.329Z,62.88
2023-08-13T08:47:58.269Z,62.88
2023-08-13T08:48:58.223Z,62.52
2023-08-13T08:49:58.200Z,62.23
2023-08-13T08:50:58.243Z,62.71
2023-08-13T08:51:58.237Z,62.91
2023-08-13T08:52:58.220Z,62.91
2023-08-13T08:53:58.232Z,62.62
2023-08-13T08:54:58.887Z,62.81
2023-08-13T08:55:58.228Z,63.01
2023-08-13T08:56:58.197Z,62.32
2023-08-13T08:57:58.235Z,62.62
2023-08-13T08:58:58.204Z,62.81
2023-08-13T08:59:58.211Z,62.71
2023-08-13T09:00:58.239Z,63.04
2023-08-13T09:01:58.332Z,63.10
2023-08-13T09:02:58.310Z,62.81
2023-08-13T09:03:58.303Z,62.84
2023-08-13T09:04:58.242Z,62.55
2023-08-13T09:06:02.662Z,62.84
2023-08-13T09:06:58.229Z,62.84
2023-08-13T09:07:58.218Z,62.55
2023-08-13T09:08:58.239Z,62.55
2023-08-13T09:09:58.209Z,62.74
2023-08-13T09:10:58.263Z,62.55
2023-08-13T09:11:58.227Z,62.74
2023-08-13T09:12:58.259Z,62.35
2023-08-13T09:13:58.231Z,62.77
2023-08-13T09:14:58.268Z,62.68
2023-08-13T09:15:58.220Z,62.68
2023-08-13T09:16:58.352Z,62.77
2023-08-13T09:17:58.271Z,62.87
2023-08-13T09:19:12.227Z,62.58
2023-08-13T09:19:58.254Z,62.87
2023-08-13T09:20:58.226Z,62.77
2023-08-13T09:21:58.273Z,62.87
2023-08-13T09:22:58.245Z,62.77
2023-08-13T09:23:58.292Z,62.38
2023-08-13T09:24:58.279Z,62.38
2023-08-13T09:25:58.263Z,62.97
2023-08-13T09:26:58.238Z,62.19
2023-08-13T09:27:58.236Z,62.00
2023-08-13T09:28:58.277Z,62.19
2023-08-13T09:29:58.268Z,62.19
2023-08-13T09:30:58.370Z,62.23
2023-08-13T09:31:58.261Z,62.23
2023-08-13T09:32:58.315Z,62.23
2023-08-13T09:33:58.246Z,62.41
2023-08-13T09:34:58.270Z,62.03
2023-08-13T09:35:58.273Z,62.23
2023-08-13T09:36:58.265Z,62.03
2023-08-13T09:37:58.248Z,62.13
2023-08-13T09:38:58.260Z,62.41
2023-08-13T09:39:58.277Z,61.83
2023-08-13T09:40:58.286Z,61.77
2023-08-13T09:41:59.095Z,62.26
2023-08-13T09:42:58.307Z,62.26
2023-08-13T09:43:58.283Z,62.16
2023-08-13T09:44:58.301Z,62.26
2023-08-13T09:45:58.309Z,62.35
2023-08-13T09:46:58.277Z,62.06
2023-08-13T09:47:58.308Z,62.26
2023-08-13T09:48:58.295Z,61.96
2023-08-13T09:49:58.353Z,62.16
2023-08-13T09:50:58.313Z,61.90
2023-08-13T09:51:58.309Z,62.38
2023-08-13T09:52:58.308Z,62.29
2023-08-13T09:53:58.304Z,61.77
2023-08-13T09:54:58.278Z,61.90
2023-08-13T09:55:58.325Z,62.38
2023-08-13T09:56:58.314Z,62.19
2023-08-13T09:57:58.285Z,62.38
2023-08-13T09:58:58.305Z,62.29
2023-08-13T09:59:58.313Z,62.38
2023-08-13T10:00:58.422Z,62.19
2023-08-13T10:01:58.303Z,61.90
2023-08-13T10:02:58.354Z,61.60
2023-08-13T10:03:58.445Z,61.80
2023-08-13T10:04:58.314Z,62.02
2023-08-13T10:05:58.362Z,61.24
2023-08-13T10:06:58.341Z,62.02
2023-08-13T10:07:58.318Z,61.93
2023-08-13T10:08:58.327Z,61.63
2023-08-13T10:10:07.905Z,62.02
2023-08-13T10:10:58.331Z,61.93
2023-08-13T10:11:58.337Z,61.54
2023-08-13T10:12:58.342Z,62.22
2023-08-13T10:13:58.357Z,61.76
2023-08-13T10:14:58.330Z,61.54
2023-08-13T10:15:58.385Z,61.47
2023-08-13T10:17:00.672Z,61.47
2023-08-13T10:17:58.363Z,61.27
2023-08-13T10:29:48.377Z,60.91
2023-08-13T10:30:48.354Z,61.01
2023-08-13T10:31:48.364Z,61.01
2023-08-13T10:32:48.368Z,61.01
2023-08-13T10:33:48.329Z,60.82
2023-08-13T10:34:48.320Z,61.01
2023-08-13T10:35:48.337Z,60.85
2023-08-13T10:36:48.313Z,60.75
2023-08-13T10:37:48.341Z,60.75
2023-08-13T10:38:48.319Z,61.04
2023-08-13T10:39:48.353Z,60.85
2023-08-13T10:40:48.334Z,61.04
2023-08-13T10:41:48.330Z,60.94
2023-08-13T10:42:48.355Z,60.85
2023-08-13T10:43:48.378Z,60.55
2023-08-13T10:44:48.341Z,60.55
2023-08-13T10:45:48.410Z,60.55
2023-08-13T10:46:48.352Z,60.49
2023-08-13T10:47:48.499Z,60.49
2023-08-13T10:48:48.367Z,60.68
2023-08-13T10:49:48.372Z,60.68
2023-08-13T10:50:48.402Z,60.58
2023-08-13T10:51:48.372Z,60.68
2023-08-13T10:52:48.395Z,60.68
2023-08-13T10:53:48.373Z,60.29
2023-08-13T10:54:48.404Z,60.29
2023-08-13T10:55:48.389Z,60.29
2023-08-13T10:56:48.424Z,60.29
2023-08-13T10:57:48.381Z,60.22
2023-08-13T10:58:48.419Z,60.19
2023-08-13T10:59:48.388Z,60.22
2023-08-13T11:00:48.410Z,60.52
2023-08-13T11:01:48.472Z,60.52
2023-08-13T11:02:48.464Z,60.52
2023-08-13T11:03:48.473Z,60.22
2023-08-13T11:04:48.426Z,60.03
2023-08-13T11:05:48.484Z,60.32
2023-08-13T11:06:48.409Z,59.83
2023-08-13T11:07:48.416Z,59.77
2023-08-13T11:08:49.055Z,60.06
2023-08-13T11:09:48.432Z,60.16
2023-08-13T11:10:48.461Z,59.77
2023-08-13T11:11:48.455Z,59.96
2023-08-13T11:12:48.460Z,59.89
2023-08-13T11:13:48.760Z,59.50
2023-08-13T11:14:48.444Z,59.50
2023-08-13T11:15:48.536Z,59.69
2023-08-13T11:16:48.476Z,59.30
2023-08-13T11:17:48.942Z,59.59
2023-08-13T11:18:48.491Z,59.53
2023-08-13T11:19:48.470Z,59.63
2023-08-13T11:20:48.498Z,59.23
2023-08-13T11:21:48.473Z,59.04
2023-08-13T11:22:48.489Z,59.33
2023-08-13T11:23:48.506Z,58.97
2023-08-13T11:24:48.485Z,58.97
2023-08-13T11:25:48.514Z,58.97
2023-08-13T11:26:48.527Z,59.07
2023-08-13T11:27:48.513Z,58.87
2023-08-13T11:28:48.537Z,58.97
2023-08-13T11:29:48.540Z,58.78
2023-08-13T11:30:48.539Z,58.78
2023-08-13T11:31:48.526Z,58.78
2023-08-13T11:32:48.585Z,58.58
2023-08-13T11:33:48.693Z,58.51
2023-08-13T11:34:48.538Z,58.41
2023-08-13T11:35:48.564Z,58.61
2023-08-13T11:36:48.561Z,58.41
2023-08-13T11:37:48.546Z,58.41
2023-08-13T11:38:48.598Z,58.80
2023-08-13T11:39:48.586Z,58.51
2023-08-13T11:40:48.579Z,58.12
2023-08-13T11:41:48.564Z,58.25
2023-08-13T11:42:48.595Z,58.12
2023-08-13T11:43:48.608Z,58.12
2023-08-13T11:44:48.583Z,57.95
2023-08-13T11:45:48.631Z,57.86
2023-08-13T11:46:48.626Z,57.86
2023-08-13T11:47:48.634Z,57.66
2023-08-13T11:48:48.633Z,57.86
2023-08-13T11:49:48.617Z,57.46
2023-08-13T11:50:48.625Z,57.56
2023-08-13T11:51:48.660Z,57.56
2023-08-13T11:52:48.660Z,57.46
2023-08-13T11:53:48.690Z,57.56
2023-08-13T11:54:48.623Z,57.66
2023-08-13T11:55:48.625Z,57.46
2023-08-13T11:56:48.632Z,57.46
2023-08-13T11:57:48.635Z,57.26
2023-08-13T11:58:48.661Z,57.53
2023-08-13T11:59:48.656Z,57.17
2023-08-13T12:00:48.719Z,57.26
2023-08-13T12:01:48.652Z,57.46
2023-08-13T12:02:48.694Z,57.46
2023-08-13T12:03:48.730Z,57.66
2023-08-13T12:04:48.676Z,56.97
2023-08-13T12:05:48.714Z,57.07
2023-08-13T12:06:48.675Z,56.87
2023-08-13T12:07:48.688Z,57.20
2023-08-13T12:08:48.867Z,56.81
2023-08-13T12:09:48.702Z,56.81
2023-08-13T12:10:48.692Z,57.29
2023-08-13T12:11:48.701Z,56.21
2023-08-13T12:12:48.723Z,56.81
2023-08-13T12:13:48.798Z,56.90
2023-08-13T12:14:48.728Z,56.34
2023-08-13T12:15:48.758Z,56.44
2023-08-13T12:16:48.722Z,56.54
2023-08-13T12:17:48.831Z,56.63
2023-08-13T12:18:48.759Z,56.83
2023-08-13T12:19:48.776Z,56.81
2023-08-13T12:20:48.805Z,56.54
2023-08-13T12:21:48.795Z,56.63
2023-08-13T12:22:48.768Z,56.54
2023-08-13T12:23:48.788Z,56.44
2023-08-13T12:24:48.784Z,56.44
2023-08-13T12:25:48.806Z,56.34
2023-08-13T12:26:48.795Z,56.44
2023-08-13T12:27:48.782Z,56.73
2023-08-13T12:28:48.815Z,56.54
2023-08-13T12:29:48.881Z,56.41
2023-08-13T12:30:48.842Z,56.31
2023-08-13T12:31:48.802Z,56.71
2023-08-13T12:32:48.864Z,56.51
2023-08-13T12:33:48.808Z,56.31
2023-08-13T12:34:48.821Z,56.31
2023-08-13T12:35:48.825Z,56.31
2023-08-13T12:36:48.837Z,56.51
2023-08-13T12:37:48.842Z,56.61
2023-08-13T12:38:48.841Z,56.51
2023-08-13T12:39:48.849Z,56.12
2023-08-13T12:40:48.865Z,55.73
2023-08-13T12:41:48.863Z,56.31
2023-08-13T12:42:48.867Z,56.31
2023-08-13T12:43:48.869Z,56.12
2023-08-13T12:44:48.886Z,55.92
2023-08-13T12:45:48.906Z,56.24
2023-08-13T12:46:48.915Z,55.56
2023-08-13T12:47:48.935Z,55.36
2023-08-13T12:48:48.873Z,56.05
2023-08-13T12:49:48.926Z,55.95
2023-08-13T12:50:48.903Z,56.05
2023-08-13T12:51:48.936Z,55.85
2023-08-13T12:52:48.890Z,55.95
2023-08-13T12:53:48.910Z,55.68
2023-08-13T12:54:48.903Z,55.29
2023-08-13T12:55:48.938Z,55.49
2023-08-13T12:56:48.911Z,55.41
2023-08-13T12:57:48.990Z,55.22
2023-08-13T12:58:48.914Z,55.22
2023-08-13T12:59:48.971Z,54.73
2023-08-13T13:00:48.961Z,55.05
2023-08-13T13:01:48.947Z,55.15
2023-08-13T13:02:48.986Z,54.75
2023-08-13T13:03:48.993Z,54.83
2023-08-13T13:04:49.033Z,54.63
2023-08-13T13:05:48.956Z,55.10
2023-08-13T13:06:49.003Z,55.58
2023-08-13T13:07:48.982Z,55.68
2023-08-13T13:08:48.996Z,55.49
2023-08-13T13:09:49.004Z,55.29
2023-08-13T13:13:46.063Z,55.39
2023-08-13T13:14:46.072Z,55.19
2023-08-13T13:15:46.098Z,55.49
2023-08-13T13:16:46.107Z,55.58
2023-08-13T13:17:46.101Z,55.56
2023-08-13T13:18:46.092Z,55.16
2023-08-13T13:19:46.106Z,55.68
2023-08-13T13:20:46.088Z,55.66
2023-08-13T13:21:46.126Z,55.76
2023-08-13T13:22:46.093Z,55.49
2023-08-13T13:23:46.124Z,55.00
2023-08-13T13:24:46.108Z,55.00
2023-08-13T13:25:46.135Z,55.36
2023-08-13T13:26:46.179Z,55.58
2023-08-13T13:27:46.137Z,55.36
2023-08-13T13:28:46.144Z,55.66
2023-08-13T13:29:46.135Z,55.66
2023-08-13T13:30:46.215Z,55.36
2023-08-13T13:31:46.163Z,55.63
2023-08-13T13:32:46.196Z,55.66
2023-08-13T13:33:46.203Z,55.73
2023-08-13T13:34:46.154Z,55.82
2023-08-13T13:35:46.159Z,55.92
2023-08-13T13:36:46.180Z,55.92
2023-08-13T13:37:46.173Z,55.92
2023-08-13T13:38:46.217Z,55.92
2023-08-13T13:39:46.246Z,55.73
2023-08-13T13:40:46.194Z,55.92
2023-08-13T13:41:46.257Z,56.02
2023-08-13T13:42:46.182Z,55.92
2023-08-13T13:43:46.200Z,55.60
2023-08-13T13:44:46.235Z,55.99
2023-08-13T13:45:46.247Z,56.02
2023-08-13T13:46:46.235Z,55.60
2023-08-13T13:47:46.234Z,55.14
2023-08-13T13:48:46.228Z,55.26
2023-08-13T13:49:46.267Z,55.00
2023-08-13T13:50:46.244Z,54.33
2023-08-13T13:51:46.248Z,53.87
2023-08-13T13:52:46.246Z,53.60
2023-08-13T13:53:46.232Z,53.50
2023-08-13T13:54:46.273Z,52.94
2023-08-13T13:55:46.249Z,53.04
2023-08-13T13:56:46.254Z,53.70
2023-08-13T13:57:46.293Z,54.10
2023-08-13T13:58:46.269Z,54.07
2023-08-13T13:59:46.269Z,54.85
2023-08-13T14:00:46.274Z,54.04
2023-08-13T14:01:46.312Z,54.24
2023-08-13T14:02:46.354Z,54.14
2023-08-13T14:03:46.500Z,54.44
2023-08-13T14:04:46.320Z,55.02
2023-08-13T14:05:46.302Z,54.44
2023-08-13T14:06:46.316Z,54.93
2023-08-13T14:07:46.323Z,54.83
2023-08-13T14:08:46.316Z,55.12
2023-08-13T14:09:46.323Z,54.60
2023-08-13T14:10:46.320Z,55.10
2023-08-13T14:11:46.324Z,55.19
2023-08-13T14:12:46.423Z,55.19
2023-08-13T14:13:46.367Z,55.26
2023-08-13T14:14:46.339Z,55.16
2023-08-13T14:15:46.445Z,55.16
2023-08-13T14:16:46.392Z,55.16
2023-08-13T14:17:46.381Z,54.97
2023-08-13T14:18:46.381Z,55.07
2023-08-13T14:19:46.362Z,55.16
2023-08-13T14:20:46.370Z,54.70
2023-08-13T14:21:46.371Z,54.60
2023-08-13T14:22:46.397Z,54.33
2023-08-13T14:23:46.424Z,54.24
2023-08-13T14:24:46.428Z,53.87
2023-08-13T14:25:46.420Z,53.70
2023-08-13T14:26:46.470Z,53.53
2023-08-13T14:27:46.405Z,53.63
2023-08-13T14:28:46.462Z,53.23
2023-08-13T14:29:46.475Z,53.63
2023-08-13T14:30:46.438Z,52.94
2023-08-13T14:31:46.467Z,53.46
2023-08-13T14:32:46.457Z,53.06
2023-08-13T14:33:46.471Z,52.97
2023-08-13T14:34:46.466Z,53.63
2023-08-13T14:35:46.466Z,53.63
2023-08-13T14:36:46.476Z,53.53
2023-08-13T14:37:46.462Z,53.63
2023-08-13T14:38:46.525Z,53.23
2023-08-13T14:39:46.488Z,53.50
2023-08-13T14:40:46.506Z,53.50
2023-08-13T14:41:46.523Z,54.27
2023-08-13T14:42:46.482Z,54.07
2023-08-13T14:43:46.515Z,54.56
2023-08-13T14:44:46.492Z,54.17
2023-08-13T14:45:46.526Z,54.04
2023-08-13T14:46:46.551Z,54.36
2023-08-13T14:47:46.651Z,53.77
2023-08-13T14:48:46.515Z,53.50
2023-08-13T14:49:46.517Z,53.23
2023-08-13T14:50:46.524Z,53.04
2023-08-13T14:51:46.544Z,53.36
2023-08-13T14:52:46.554Z,52.77
2023-08-13T14:53:46.541Z,52.70
2023-08-13T14:54:46.550Z,52.50
2023-08-13T14:55:46.585Z,52.82
2023-08-13T14:56:46.605Z,52.70
2023-08-13T14:57:46.591Z,52.50
2023-08-13T14:58:46.574Z,53.36
2023-08-13T14:59:46.584Z,53.06
2023-08-13T15:00:46.650Z,53.33
2023-08-13T15:01:46.673Z,53.53
2023-08-13T15:02:46.823Z,53.53
2023-08-13T15:03:46.699Z,53.53
2023-08-13T15:04:46.635Z,53.53
2023-08-13T15:05:46.639Z,53.50
2023-08-13T15:06:46.668Z,53.50
2023-08-13T15:07:46.675Z,53.50
2023-08-13T15:08:46.649Z,53.97
2023-08-13T15:09:46.654Z,53.67
2023-08-13T15:10:46.672Z,53.58
2023-08-13T15:11:46.649Z,53.67
2023-08-13T15:12:46.893Z,53.58
2023-08-13T15:13:46.678Z,53.31
2023-08-13T15:14:46.664Z,53.21
2023-08-13T15:15:46.712Z,52.72
2023-08-13T15:16:46.670Z,52.52
2023-08-13T15:17:46.744Z,53.02
2023-08-13T15:18:46.708Z,53.02
2023-08-13T15:19:46.689Z,53.19
2023-08-13T15:20:46.724Z,53.28
2023-08-13T15:21:46.704Z,53.06
2023-08-13T15:22:46.743Z,53.65
2023-08-13T15:23:46.742Z,53.85
2023-08-13T15:24:46.733Z,53.43
2023-08-13T15:26:46.742Z,53.72
2023-08-13T15:27:46.730Z,53.69
2023-08-13T15:28:46.732Z,53.99
2023-08-13T15:29:46.746Z,53.80
2023-08-13T15:30:47.529Z,54.06
2023-08-13T15:31:46.763Z,54.65
2023-08-13T15:33:46.782Z,55.01
2023-08-13T15:34:46.817Z,54.43
2023-08-13T15:35:46.762Z,54.62
2023-08-13T15:36:46.780Z,54.99
2023-08-13T15:37:46.800Z,54.99
2023-08-13T15:38:46.793Z,55.18
2023-08-13T15:39:46.829Z,55.08
2023-08-13T15:40:46.797Z,54.79
2023-08-13T15:41:46.783Z,54.50
2023-08-13T15:42:46.820Z,55.16
2023-08-13T15:43:46.800Z,55.16
2023-08-13T15:44:46.794Z,55.16
2023-08-13T15:45:46.813Z,55.42
2023-08-13T15:46:46.851Z,54.83
2023-08-13T15:47:47.011Z,55.03
2023-08-13T15:51:19.375Z,55.10
2023-08-13T15:52:19.364Z,55.40
2023-08-13T15:53:19.359Z,55.79
2023-08-13T15:54:19.390Z,55.40
2023-08-13T15:55:19.378Z,55.88
2023-08-13T15:56:19.380Z,55.49
2023-08-13T15:57:19.403Z,55.66
2023-08-13T15:58:19.381Z,55.66
2023-08-13T15:59:19.386Z,55.86
2023-08-13T16:00:19.415Z,55.66
2023-08-13T16:01:19.501Z,55.66
2023-08-13T16:02:19.412Z,56.05
2023-08-13T16:03:19.455Z,56.05
2023-08-13T16:04:19.483Z,55.47
2023-08-13T16:05:19.411Z,56.64
2023-08-13T16:06:19.450Z,55.96
2023-08-13T16:07:19.447Z,56.35
2023-08-13T16:08:19.427Z,55.93
2023-08-13T16:09:19.476Z,56.12
2023-08-13T16:10:19.413Z,56.02
2023-08-13T16:11:19.441Z,56.51
2023-08-13T16:12:19.492Z,56.32
2023-08-13T16:13:19.431Z,55.54
2023-08-13T16:14:19.433Z,56.00
2023-08-13T16:15:19.439Z,56.29
2023-08-13T16:16:19.512Z,56.10
2023-08-13T16:17:19.559Z,56.38
2023-08-13T16:29:04.197Z,56.43
2023-08-13T16:30:04.120Z,56.23
2023-08-13T16:32:29.896Z,56.33
2023-08-13T16:33:04.193Z,56.52
2023-08-13T16:34:04.136Z,56.43
2023-08-13T16:35:04.115Z,56.23
2023-08-13T16:36:04.127Z,56.52
2023-08-13T16:37:04.144Z,56.40
2023-08-13T16:38:04.116Z,56.70
2023-08-13T16:39:04.120Z,56.89
2023-08-13T16:40:04.110Z,56.60
2023-08-13T16:41:04.115Z,56.89
2023-08-13T16:42:04.123Z,57.18
2023-08-13T16:43:08.573Z,56.96
2023-08-13T16:44:04.126Z,56.96
2023-08-13T16:45:04.150Z,57.25
2023-08-13T16:46:05.590Z,57.06
2023-08-13T16:47:04.181Z,56.96
2023-08-13T16:48:04.189Z,56.76
2023-08-13T16:49:04.136Z,57.06
2023-08-13T16:50:14.222Z,57.25
2023-08-13T16:51:04.139Z,57.03
2023-08-13T16:52:04.153Z,57.12
2023-08-13T16:53:04.137Z,57.42
2023-08-13T16:54:04.160Z,57.32
2023-08-13T16:55:04.139Z,57.32
2023-08-13T16:56:04.144Z,57.32
2023-08-13T16:57:04.152Z,57.42
2023-08-13T16:58:04.152Z,57.22
2023-08-13T16:59:04.133Z,57.51
2023-08-13T17:00:04.173Z,57.32
2023-08-13T17:01:04.180Z,57.51
2023-08-13T17:02:04.142Z,57.51
2023-08-13T17:03:04.209Z,57.51
2023-08-13T17:04:04.166Z,57.61
2023-08-13T17:05:04.180Z,57.61
2023-08-13T17:06:04.161Z,57.61
2023-08-13T17:07:04.176Z,57.59
2023-08-13T17:08:04.180Z,57.61
2023-08-13T17:09:04.189Z,57.90
2023-08-13T17:10:04.141Z,57.51
2023-08-13T17:11:04.154Z,57.78
2023-08-13T17:12:04.143Z,57.59
2023-08-13T17:13:04.194Z,57.97
2023-08-13T17:14:04.189Z,57.71
2023-08-13T17:15:16.790Z,57.97
2023-08-13T17:16:04.185Z,57.87
2023-08-13T17:17:04.204Z,58.26
2023-08-13T17:18:04.181Z,57.87
2023-08-13T17:19:04.165Z,58.17
2023-08-13T17:20:04.175Z,57.97
2023-08-13T17:21:04.160Z,58.17
2023-08-13T17:22:04.157Z,58.26
2023-08-13T17:23:04.236Z,57.87
2023-08-13T17:24:04.193Z,58.26
2023-08-13T17:25:04.184Z,58.17
2023-08-13T17:26:04.183Z,58.46
2023-08-13T17:27:04.781Z,58.36
2023-08-13T17:28:04.216Z,58.07
2023-08-13T17:29:04.169Z,58.04
2023-08-13T17:30:04.198Z,58.36
2023-08-13T17:31:04.325Z,58.26
2023-08-13T17:32:04.182Z,58.04
2023-08-13T17:33:04.236Z,58.23
2023-08-13T17:34:04.174Z,58.04
2023-08-13T17:35:04.198Z,58.23
2023-08-13T17:36:04.216Z,58.23
2023-08-13T17:37:04.169Z,58.43
2023-08-13T17:38:04.200Z,58.23
2023-08-13T17:39:04.171Z,58.43